Time;durP1;ratioP1;P1;durP2;ratioP2;P2;SDS_P1;SDS_P2;PMS_P1;PMS_P2;Temp;Humidity;BMP_temperature;BMP_pressure;BME280_temperature;BME280_humidity;BME280_pressure;Samples;Min_cycle;Max_cycle;Signal;HPM_P1;HPM_P2
2023/06/10 00:03:34;;;;;;;4.03;3.25;;;32.20;49.60;;;;;;10483581;28;20132;-28
2023/06/10 00:08:37;;;;;;;4.18;3.03;;;32.10;49.60;;;;;;10495790;28;20041;-27
2023/06/10 00:13:41;;;;;;;4.75;3.10;;;32.10;50.20;;;;;;10482974;28;20385;-27
2023/06/10 00:18:43;;;;;;;3.97;3.10;;;32.00;49.70;;;;;;10490850;28;20144;-29
2023/06/10 00:23:45;;;;;;;5.35;3.28;;;32.00;49.70;;;;;;10494026;28;20059;-28
2023/06/10 00:28:49;;;;;;;3.70;2.70;;;31.90;49.70;;;;;;10501915;28;20048;-28
2023/06/10 00:33:50;;;;;;;3.80;3.20;;;31.90;49.80;;;;;;10501971;28;20052;-26
2023/06/10 00:38:52;;;;;;;4.13;3.20;;;31.80;50.40;;;;;;10488287;28;20051;-28
2023/06/10 00:43:56;;;;;;;3.17;2.60;;;31.80;49.90;;;;;;10488256;28;20044;-28
2023/06/10 00:48:57;;;;;;;3.50;3.20;;;31.70;50.50;;;;;;10501120;28;20068;-28
2023/06/10 00:54:00;;;;;;;6.20;3.75;;;31.60;49.90;;;;;;10485339;28;20512;-27
2023/06/10 00:59:03;;;;;;;4.88;2.70;;;31.60;49.90;;;;;;10491720;28;20053;-28
2023/06/10 01:04:05;;;;;;;6.32;3.50;;;31.60;50.00;;;;;;10499223;28;20076;-27
2023/06/10 01:09:13;;;;;;;3.55;3.25;;;31.50;50.60;;;;;;10478821;28;20095;-28
2023/06/10 01:14:17;;;;;;;4.10;3.22;;;31.50;50.10;;;;;;10485612;28;20131;-27
2023/06/10 01:19:19;;;;;;;3.70;3.10;;;31.40;50.00;;;;;;10513112;28;20097;-28
2023/06/10 01:24:23;;;;;;;4.97;3.22;;;31.40;50.00;;;;;;10491910;28;20048;-28
2023/06/10 01:29:29;;;;;;;3.40;3.10;;;31.30;50.00;;;;;;10475789;28;20072;-28
2023/06/10 01:34:33;;;;;;;3.78;3.30;;;31.30;50.10;;;;;;10491270;28;20056;-27
2023/06/10 01:39:37;;;;;;;4.72;3.10;;;31.30;50.20;;;;;;10489831;28;20058;-28
2023/06/10 01:44:41;;;;;;;3.38;2.95;;;31.20;50.10;;;;;;10487358;28;20086;-28
2023/06/10 01:49:43;;;;;;;3.35;3.05;;;31.20;50.20;;;;;;10495139;28;20055;-27
2023/06/10 01:54:46;;;;;;;3.35;3.00;;;31.10;50.10;;;;;;10493567;28;20227;-28
2023/06/10 01:59:48;;;;;;;3.35;2.88;;;31.10;50.20;;;;;;10496265;28;20063;-28
2023/06/10 02:04:50;;;;;;;3.80;3.10;;;31.00;50.20;;;;;;10492134;28;20491;-29
2023/06/10 02:09:53;;;;;;;4.13;3.10;;;31.00;50.20;;;;;;10491208;28;20469;-28
2023/06/10 02:14:55;;;;;;;3.28;2.97;;;31.00;50.30;;;;;;10504711;28;20127;-28
2023/06/10 02:19:58;;;;;;;4.78;2.78;;;30.90;50.20;;;;;;10493429;28;20552;-28
2023/06/10 02:25:01;;;;;;;3.38;2.92;;;30.90;50.20;;;;;;10479274;28;20049;-26
2023/06/10 02:30:03;;;;;;;3.00;2.72;;;30.80;50.20;;;;;;10508397;28;20087;-31
2023/06/10 02:35:06;;;;;;;4.07;2.72;;;30.80;50.30;;;;;;10486070;28;20037;-29
2023/06/10 02:40:11;;;;;;;3.25;2.67;;;30.70;50.30;;;;;;10490462;28;20055;-29
2023/06/10 02:45:12;;;;;;;3.67;2.78;;;30.70;50.20;;;;;;10498199;28;20485;-27
2023/06/10 02:50:15;;;;;;;3.05;2.70;;;30.70;50.30;;;;;;10495815;28;20045;-27
2023/06/10 02:55:18;;;;;;;3.97;2.83;;;30.70;50.30;;;;;;10492060;28;20072;-27
2023/06/10 03:15:32;;;;;;;4.67;2.70;;;30.50;49.70;;;;;;10543974;27;20108;-27
2023/06/10 03:20:37;;;;;;;3.75;2.78;;;30.40;50.30;;;;;;10570023;28;20059;-26
2023/06/10 03:25:39;;;;;;;3.15;2.70;;;30.40;50.40;;;;;;10562844;28;20465;-26
2023/06/10 03:30:42;;;;;;;3.70;2.90;;;30.40;50.50;;;;;;10568069;28;20074;-26
2023/06/10 03:35:44;;;;;;;3.63;2.50;;;30.40;50.40;;;;;;10568517;28;20048;-27
2023/06/10 03:40:46;;;;;;;3.42;2.70;;;30.30;50.40;;;;;;10548527;28;20112;-26
2023/06/10 03:45:49;;;;;;;3.85;2.90;;;30.20;50.30;;;;;;10566805;28;20071;-26
2023/06/10 03:50:52;;;;;;;3.45;2.88;;;30.20;50.40;;;;;;10568292;28;20047;-26
2023/06/10 03:55:53;;;;;;;3.35;3.05;;;30.20;50.40;;;;;;10549602;28;20122;-26
2023/06/10 04:00:57;;;;;;;2.83;2.50;;;30.10;50.40;;;;;;10572347;28;20048;-27
2023/06/10 04:05:59;;;;;;;3.30;3.00;;;30.10;50.40;;;;;;10573456;28;20040;-27
2023/06/10 04:11:00;;;;;;;3.08;2.85;;;30.10;50.30;;;;;;10573828;28;20056;-27
2023/06/10 04:16:04;;;;;;;8.05;3.05;;;30.10;50.40;;;;;;10567422;28;20047;-26
2023/06/10 04:21:05;;;;;;;3.30;2.72;;;30.10;50.40;;;;;;10589305;28;20072;-28
2023/06/10 04:26:08;;;;;;;3.40;2.40;;;30.00;50.30;;;;;;10531921;28;20068;-27
2023/06/10 04:31:11;;;;;;;3.17;2.70;;;30.00;50.30;;;;;;10537083;28;20091;-27
2023/06/10 04:36:14;;;;;;;3.08;2.40;;;30.00;50.30;;;;;;10528633;28;20049;-28
2023/06/10 04:41:16;;;;;;;3.50;2.78;;;30.00;50.20;;;;;;10528219;28;20056;-27
2023/06/10 04:46:19;;;;;;;2.97;2.67;;;30.00;50.30;;;;;;10535815;28;20048;-30
2023/06/10 04:51:21;;;;;;;2.85;2.58;;;30.00;50.20;;;;;;10548941;28;20074;-27
2023/06/10 04:56:23;;;;;;;3.55;3.10;;;29.90;50.10;;;;;;10535579;28;20488;-27
2023/06/10 05:01:27;;;;;;;2.75;2.50;;;29.90;50.00;;;;;;10540389;28;20052;-27
2023/06/10 05:06:29;;;;;;;3.70;3.15;;;29.90;50.10;;;;;;10529717;28;20051;-27
2023/06/10 05:11:31;;;;;;;4.38;2.58;;;29.90;50.10;;;;;;10522341;28;20059;-27
2023/06/10 05:16:34;;;;;;;3.90;2.90;;;29.90;49.90;;;;;;10523649;28;20047;-27
2023/06/10 05:21:36;;;;;;;4.32;2.78;;;29.90;49.90;;;;;;10529407;28;20080;-25
2023/06/10 05:26:38;;;;;;;5.03;2.38;;;29.90;50.00;;;;;;10536380;28;20566;-25
2023/06/10 05:31:41;;;;;;;5.03;2.50;;;29.90;49.90;;;;;;10542165;28;20044;-27
2023/06/10 05:36:43;;;;;;;5.07;2.90;;;29.90;49.80;;;;;;10527962;28;20064;-27
2023/06/10 05:41:46;;;;;;;4.50;2.30;;;29.90;49.80;;;;;;10535307;28;20043;-27
2023/06/10 05:46:49;;;;;;;4.50;2.92;;;29.90;49.80;;;;;;10529261;28;20051;-29
2023/06/10 05:51:52;;;;;;;4.18;3.28;;;29.90;49.80;;;;;;10534225;28;20135;-26
2023/06/10 05:56:54;;;;;;;6.07;2.40;;;29.90;49.70;;;;;;10542636;28;20048;-27
2023/06/10 06:01:57;;;;;;;3.95;2.50;;;29.90;49.80;;;;;;10534775;28;20131;-26
2023/06/10 06:06:59;;;;;;;3.83;2.72;;;29.90;49.60;;;;;;10542285;28;20123;-27
2023/06/10 06:12:01;;;;;;;5.03;2.30;;;29.90;49.70;;;;;;10532386;28;20054;-26
2023/06/10 06:17:04;;;;;;;2.90;2.60;;;29.90;49.60;;;;;;10542831;28;20138;-28
2023/06/10 06:22:06;;;;;;;6.10;2.50;;;29.90;49.60;;;;;;10525339;28;20055;-28
2023/06/10 06:27:08;;;;;;;3.75;2.97;;;29.90;49.50;;;;;;10542040;28;20131;-27
2023/06/10 06:32:11;;;;;;;2.88;2.50;;;30.00;49.50;;;;;;10516562;28;20402;-27
2023/06/10 06:37:13;;;;;;;3.75;2.85;;;30.00;49.20;;;;;;10535027;28;20052;-27
2023/06/10 06:42:15;;;;;;;4.03;3.08;;;30.00;49.30;;;;;;10535157;28;20554;-28
2023/06/10 06:47:19;;;;;;;4.30;2.95;;;30.10;49.00;;;;;;10523379;28;20365;-28
2023/06/10 06:52:22;;;;;;;4.60;2.95;;;30.10;48.80;;;;;;10523552;28;20144;-25
2023/06/10 06:57:24;;;;;;;4.93;2.88;;;30.10;49.10;;;;;;10525889;28;20040;-31
2023/06/10 07:02:27;;;;;;;4.35;3.15;;;30.20;49.10;;;;;;10522276;28;20047;-28
2023/06/10 07:07:29;;;;;;;5.53;3.80;;;30.20;49.10;;;;;;10526440;28;20087;-27
2023/06/10 07:12:30;;;;;;;4.68;3.45;;;30.30;48.20;;;;;;10520192;28;20101;-28
2023/06/10 07:17:34;;;;;;;5.40;3.25;;;30.30;48.60;;;;;;10512829;28;20083;-26
2023/06/10 07:22:38;;;;;;;4.30;3.20;;;30.40;48.60;;;;;;10512388;28;20048;-28
2023/06/10 07:27:40;;;;;;;4.75;2.92;;;30.40;48.30;;;;;;10507204;28;20044;-28
2023/06/10 07:32:45;;;;;;;6.18;3.45;;;30.40;48.70;;;;;;10520910;28;20143;-28
2023/06/10 07:37:47;;;;;;;6.25;3.42;;;30.40;48.70;;;;;;10504047;28;20558;-29
2023/06/10 07:42:49;;;;;;;3.03;2.70;;;30.40;48.80;;;;;;10526446;28;20427;-30
2023/06/10 07:47:52;;;;;;;15.32;2.80;;;30.40;48.50;;;;;;10526019;28;20044;-27
2023/06/10 07:52:54;;;;;;;7.85;3.45;;;30.80;48.20;;;;;;10527848;28;20083;-27
2023/06/10 07:57:56;;;;;;;5.53;3.00;;;30.60;48.50;;;;;;10516227;28;20489;-28
2023/06/10 08:02:59;;;;;;;3.95;3.25;;;30.40;49.20;;;;;;10525450;28;20044;-26
2023/06/10 08:08:01;;;;;;;7.25;3.38;;;30.80;47.70;;;;;;10524352;28;20064;-26
2023/06/10 08:13:03;;;;;;;5.80;3.17;;;30.80;48.00;;;;;;10524174;28;20048;-27
2023/06/10 08:18:06;;;;;;;4.22;3.20;;;30.80;48.10;;;;;;10524338;28;20140;-29
2023/06/10 08:23:08;;;;;;;5.80;3.05;;;30.90;48.50;;;;;;10523558;28;20059;-27
2023/06/10 08:28:10;;;;;;;3.10;2.80;;;30.80;48.60;;;;;;10530803;28;20134;-27
2023/06/10 08:33:13;;;;;;;4.85;3.25;;;31.00;48.10;;;;;;10530569;28;20131;-26
2023/06/10 08:38:16;;;;;;;11.52;2.78;;;31.00;47.60;;;;;;10521921;28;20109;-26
2023/06/10 08:43:23;;;;;;;6.10;3.55;;;30.90;48.30;;;;;;10523201;28;20048;-27
2023/06/10 08:48:29;;;;;;;3.97;2.92;;;31.10;47.40;;;;;;10536992;28;20076;-27
2023/06/10 08:53:34;;;;;;;5.22;3.67;;;31.20;47.80;;;;;;10532621;28;20607;-27
2023/06/10 08:58:41;;;;;;;5.18;3.13;;;31.10;48.10;;;;;;10523479;28;20327;-27
2023/06/10 09:03:44;;;;;;;3.30;3.00;;;31.30;47.70;;;;;;10523200;28;20473;-27
2023/06/10 09:08:47;;;;;;;3.33;2.80;;;31.10;47.40;;;;;;10543622;28;20075;-27
2023/06/10 09:13:48;;;;;;;6.05;3.33;;;31.30;46.40;;;;;;10535729;28;20583;-27
2023/06/10 09:18:54;;;;;;;3.85;3.20;;;30.90;47.30;;;;;;10558073;28;20067;-27
2023/06/10 09:23:56;;;;;;;3.72;3.08;;;31.10;46.10;;;;;;10540866;28;20048;-27
2023/06/10 09:29:04;;;;;;;5.78;3.42;;;31.00;46.90;;;;;;10526827;28;20335;-28
2023/06/10 09:34:09;;;;;;;4.50;3.22;;;31.60;45.20;;;;;;10522122;28;20417;-28
2023/06/10 09:39:16;;;;;;;3.38;3.08;;;31.60;46.20;;;;;;10519286;28;21582;-28
2023/06/10 09:44:20;;;;;;;8.15;3.78;;;31.50;43.50;;;;;;10516056;28;20070;-27
2023/06/10 09:49:24;;;;;;;3.40;2.83;;;31.30;46.70;;;;;;10523354;28;20047;-28
2023/06/10 09:54:33;;;;;;;5.40;3.17;;;31.50;45.90;;;;;;10532595;28;20044;-34
2023/06/10 09:59:35;;;;;;;5.85;2.83;;;31.40;46.00;;;;;;10528191;28;20106;-26
2023/06/10 10:04:38;;;;;;;7.25;3.53;;;32.00;45.10;;;;;;10529827;28;20130;-25
2023/06/10 10:09:41;;;;;;;3.88;2.85;;;31.50;44.40;;;;;;10537945;28;20504;-28
2023/06/10 10:14:48;;;;;;;3.28;2.70;;;31.90;45.90;;;;;;10525939;28;20140;-29
2023/06/10 10:19:56;;;;;;;5.03;2.75;;;31.90;44.60;;;;;;10516449;28;20052;-27
2023/06/10 10:25:00;;;;;;;5.20;3.25;;;31.50;44.70;;;;;;10530706;28;20044;-26
2023/06/10 10:30:08;;;;;;;8.75;3.95;;;31.00;44.50;;;;;;10528922;28;20457;-27
2023/06/10 10:35:17;;;;;;;10.27;4.03;;;31.20;43.30;;;;;;10519210;28;20405;-26
2023/06/10 10:40:20;;;;;;;4.60;3.33;;;31.20;44.20;;;;;;10525120;28;20052;-28
2023/06/10 10:45:22;;;;;;;6.13;3.40;;;31.20;45.20;;;;;;10524883;28;20048;-26
2023/06/10 10:50:30;;;;;;;4.97;3.72;;;31.40;43.50;;;;;;10525918;28;20082;-26
2023/06/10 10:55:32;;;;;;;11.75;4.50;;;31.30;44.00;;;;;;10537336;28;20063;-27
2023/06/10 11:00:36;;;;;;;7.47;3.72;;;31.20;42.80;;;;;;10530401;28;20494;-27
2023/06/10 11:05:44;;;;;;;5.65;3.15;;;31.20;43.70;;;;;;10532315;28;20088;-26
2023/06/10 11:10:52;;;;;;;5.40;3.63;;;31.60;46.00;;;;;;10530016;28;20060;-26
2023/06/10 11:15:59;;;;;;;3.40;2.75;;;32.10;42.20;;;;;;10528601;28;20047;-26
2023/06/10 11:21:04;;;;;;;4.50;3.05;;;32.30;44.70;;;;;;10543888;28;20130;-27
2023/06/10 11:26:18;;;;;;;5.25;3.72;;;32.40;43.30;;;;;;10527918;28;20044;-28
2023/06/10 11:31:21;;;;;;;3.72;3.20;;;33.40;43.30;;;;;;10525739;28;20079;-29
2023/06/10 11:36:25;;;;;;;4.40;3.33;;;33.30;42.40;;;;;;10547818;28;20074;-29
2023/06/10 11:41:28;;;;;;;4.60;2.80;;;33.10;44.10;;;;;;10531568;28;20053;-25
2023/06/10 11:46:30;;;;;;;3.53;2.65;;;33.40;42.40;;;;;;10522563;28;20041;-27
2023/06/10 11:51:36;;;;;;;9.30;3.22;;;33.90;44.10;;;;;;10542202;28;20548;-27
2023/06/10 11:56:37;;;;;;;5.53;3.55;;;33.90;43.80;;;;;;10536372;28;20052;-28
2023/06/10 12:01:44;;;;;;;3.28;2.97;;;33.90;40.20;;;;;;10535898;28;20032;-27
2023/06/10 12:06:48;;;;;;;4.75;3.70;;;34.10;42.20;;;;;;10529810;28;20110;-27
2023/06/10 12:11:52;;;;;;;4.40;3.45;;;34.40;41.60;;;;;;10533014;28;20550;-27
2023/06/10 12:16:54;;;;;;;4.05;3.50;;;34.50;39.80;;;;;;10547688;28;20090;-27
2023/06/10 12:21:57;;;;;;;8.35;3.63;;;34.80;38.50;;;;;;10529535;28;20158;-27
2023/06/10 12:26:59;;;;;;;5.20;3.60;;;34.90;38.70;;;;;;10522894;28;20134;-29
2023/06/10 12:32:02;;;;;;;4.60;3.45;;;35.40;39.30;;;;;;10525373;28;20048;-27
2023/06/10 12:37:07;;;;;;;4.43;3.28;;;35.50;37.90;;;;;;10526401;28;20057;-27
2023/06/10 12:42:10;;;;;;;5.57;3.53;;;36.00;39.30;;;;;;10524857;28;20051;-27
2023/06/10 12:47:13;;;;;;;6.00;3.50;;;36.00;40.20;;;;;;10541068;28;20048;-27
2023/06/10 12:52:17;;;;;;;5.78;3.38;;;36.30;39.60;;;;;;10553209;28;20071;-26
2023/06/10 12:57:19;;;;;;;7.60;3.25;;;36.50;38.50;;;;;;10539820;28;20074;-27
2023/06/10 13:02:26;;;;;;;4.72;2.90;;;36.70;36.30;;;;;;10538698;28;20507;-27
2023/06/10 13:07:30;;;;;;;6.32;3.40;;;37.30;38.00;;;;;;10524928;28;20090;-26
2023/06/10 13:12:32;;;;;;;4.80;3.20;;;36.90;38.70;;;;;;10535393;28;20044;-27
2023/06/10 13:17:35;;;;;;;4.55;2.85;;;37.40;36.40;;;;;;10538725;28;20044;-27
2023/06/10 13:22:38;;;;;;;3.28;2.70;;;36.70;40.40;;;;;;10523697;28;20127;-27
2023/06/10 13:27:41;;;;;;;2.95;2.67;;;36.70;40.00;;;;;;10529752;28;20127;-28
2023/06/10 13:32:43;;;;;;;3.45;2.55;;;37.00;39.80;;;;;;10526779;28;20036;-26
2023/06/10 13:37:46;;;;;;;6.03;4.30;;;37.10;39.70;;;;;;10523071;28;20480;-27
2023/06/10 13:42:50;;;;;;;3.83;2.55;;;37.10;39.10;;;;;;10526199;28;20127;-26
2023/06/10 13:47:52;;;;;;;7.60;3.08;;;37.40;38.10;;;;;;10523457;28;20117;-27
2023/06/10 13:52:55;;;;;;;3.65;2.85;;;38.00;37.80;;;;;;10538133;28;20500;-28
2023/06/10 13:57:57;;;;;;;3.15;2.85;;;38.40;37.00;;;;;;10540966;28;20514;-26
2023/06/10 14:02:59;;;;;;;4.90;2.58;;;38.20;37.80;;;;;;10526174;28;20059;-26
2023/06/10 14:08:02;;;;;;;8.80;3.20;;;38.20;39.10;;;;;;10516470;28;20109;-27
2023/06/10 14:13:04;;;;;;;8.07;3.47;;;38.60;36.10;;;;;;10534819;28;20143;-27
2023/06/10 14:18:06;;;;;;;4.85;3.10;;;39.20;37.40;;;;;;10513252;28;20055;-28
2023/06/10 14:23:09;;;;;;;6.03;3.25;;;38.90;37.40;;;;;;10542962;28;20131;-26
2023/06/10 14:28:11;;;;;;;4.53;3.42;;;36.40;35.80;;;;;;10531691;28;20068;-24
2023/06/10 14:33:14;;;;;;;10.38;4.50;;;35.30;36.20;;;;;;10528227;28;20113;-27
2023/06/10 14:38:17;;;;;;;11.57;3.78;;;34.60;36.10;;;;;;10547650;28;20051;-29
2023/06/10 14:43:19;;;;;;;5.43;3.17;;;36.40;36.00;;;;;;10507383;28;20055;-28
2023/06/10 14:48:21;;;;;;;6.65;2.72;;;38.70;35.00;;;;;;10533219;28;20097;-27
2023/06/10 14:53:24;;;;;;;4.53;3.08;;;39.60;35.80;;;;;;10529123;28;20047;-33
2023/06/10 14:58:26;;;;;;;4.90;2.80;;;38.80;34.70;;;;;;10525714;28;20064;-26
2023/06/10 15:03:28;;;;;;;14.38;3.88;;;39.60;35.80;;;;;;10523060;28;20134;-28
2023/06/10 15:08:31;;;;;;;4.78;2.67;;;39.20;33.70;;;;;;10524101;28;20079;-25
2023/06/10 15:13:33;;;;;;;4.85;3.13;;;40.50;36.30;;;;;;10522599;28;20048;-25
2023/06/10 15:18:35;;;;;;;3.35;2.72;;;42.10;35.70;;;;;;10444038;28;20070;-26
2023/06/10 15:23:38;;;;;;;2.78;2.47;;;41.90;36.10;;;;;;10433121;28;20048;-24
2023/06/10 15:28:40;;;;;;;3.75;2.42;;;42.10;36.90;;;;;;10492335;28;20558;-26
2023/06/10 15:33:42;;;;;;;5.18;2.72;;;42.60;34.50;;;;;;10519957;28;20056;-28
2023/06/10 15:38:45;;;;;;;5.50;3.05;;;42.10;36.50;;;;;;10522108;28;20044;-27
2023/06/10 15:43:47;;;;;;;5.25;3.45;;;43.50;38.90;;;;;;10532819;28;20048;-24
2023/06/10 15:48:49;;;;;;;5.75;3.17;;;42.40;37.80;;;;;;10521139;28;20056;-26
2023/06/10 15:53:53;;;;;;;6.13;2.80;;;43.30;38.80;;;;;;10514828;28;20449;-27
2023/06/10 15:58:54;;;;;;;4.72;3.47;;;43.10;37.40;;;;;;10530046;28;21444;-26
2023/06/10 16:03:57;;;;;;;4.60;2.92;;;42.50;39.10;;;;;;10519692;28;20139;-28
2023/06/10 16:09:00;;;;;;;3.13;2.47;;;44.20;37.50;;;;;;10526594;28;20139;-26
2023/06/10 16:14:04;;;;;;;5.80;2.92;;;44.50;37.50;;;;;;10525422;28;20099;-27
2023/06/10 16:19:05;;;;;;;6.05;3.00;;;42.30;38.20;;;;;;10543884;28;20501;-25
2023/06/10 16:24:09;;;;;;;2.70;2.50;;;42.50;33.70;;;;;;10550581;28;20487;-27
2023/06/10 16:29:11;;;;;;;3.03;2.25;;;41.80;39.50;;;;;;10544211;28;20050;-26
2023/06/10 16:34:13;;;;;;;7.53;3.55;;;40.80;40.50;;;;;;10542255;28;20055;-26
2023/06/10 16:39:16;;;;;;;3.75;2.95;;;41.80;35.80;;;;;;10531244;28;20068;-26
2023/06/10 16:44:18;;;;;;;4.32;2.53;;;40.30;39.70;;;;;;10518338;28;20423;-26
2023/06/10 16:49:19;;;;;;;4.45;3.03;;;39.80;40.30;;;;;;10537461;28;20449;-26
2023/06/10 16:54:23;;;;;;;5.00;2.35;;;40.10;41.70;;;;;;10532109;28;20051;-27
2023/06/10 16:59:24;;;;;;;4.10;2.50;;;40.20;37.60;;;;;;10537822;28;20048;-26
2023/06/10 17:04:26;;;;;;;3.80;2.70;;;40.00;40.50;;;;;;10537671;28;20043;-25
2023/06/10 17:09:29;;;;;;;3.17;2.67;;;40.00;40.80;;;;;;10559118;28;20059;-28
2023/06/10 17:14:31;;;;;;;4.28;2.60;;;39.40;40.20;;;;;;10527238;28;20469;-25
2023/06/10 17:19:33;;;;;;;6.47;3.35;;;38.90;39.40;;;;;;10537724;28;20138;-25
2023/06/10 17:24:37;;;;;;;4.55;2.85;;;38.30;38.80;;;;;;10526606;28;20071;-27
2023/06/10 17:29:39;;;;;;;4.68;2.92;;;38.90;39.50;;;;;;10519873;28;20695;-28
2023/06/10 17:34:41;;;;;;;5.35;3.10;;;39.10;40.10;;;;;;10537254;28;20135;-26
2023/06/10 17:39:44;;;;;;;2.70;2.30;;;39.30;37.40;;;;;;10530973;28;20596;-25
2023/06/10 17:44:46;;;;;;;2.95;2.63;;;38.90;42.60;;;;;;10534277;28;20711;-25
2023/06/10 17:49:48;;;;;;;3.15;2.30;;;38.80;41.40;;;;;;10525081;28;20075;-24
2023/06/10 17:54:51;;;;;;;10.43;2.83;;;38.40;40.70;;;;;;10527450;28;20136;-26
2023/06/10 17:59:53;;;;;;;5.18;2.72;;;38.40;36.40;;;;;;10519651;28;20079;-24
2023/06/10 18:04:54;;;;;;;3.25;2.47;;;38.40;40.70;;;;;;10521574;28;20048;-25
2023/06/10 18:09:58;;;;;;;3.53;2.25;;;38.80;39.00;;;;;;10526338;28;20052;-25
2023/06/10 18:14:59;;;;;;;4.20;2.60;;;38.40;40.20;;;;;;10529199;28;20564;-25
2023/06/10 18:20:02;;;;;;;4.63;2.67;;;37.90;40.20;;;;;;10539978;28;20142;-23
2023/06/10 18:25:05;;;;;;;3.53;2.53;;;38.50;41.20;;;;;;10537518;28;20044;-29
2023/06/10 18:30:09;;;;;;;2.65;2.38;;;38.00;40.80;;;;;;10529211;28;20428;-26
2023/06/10 18:35:10;;;;;;;3.63;3.22;;;37.90;40.20;;;;;;10522348;28;20133;-27
2023/06/10 18:40:14;;;;;;;7.50;3.92;;;37.80;41.40;;;;;;10534303;28;20112;-27
2023/06/10 18:45:16;;;;;;;7.07;5.00;;;37.70;39.00;;;;;;10546385;28;20392;-26
2023/06/10 18:50:18;;;;;;;8.20;5.68;;;37.90;41.70;;;;;;10528256;28;20045;-27
2023/06/10 18:55:21;;;;;;;7.13;5.35;;;37.90;39.90;;;;;;10530065;28;20070;-26
2023/06/10 19:00:23;;;;;;;7.72;5.20;;;37.90;41.00;;;;;;10528920;28;20522;-26
2023/06/10 19:05:25;;;;;;;6.88;5.22;;;37.60;41.50;;;;;;10531726;28;20064;-27
2023/06/10 19:10:28;;;;;;;7.93;5.30;;;37.50;42.00;;;;;;10508600;28;20142;-25
2023/06/10 19:15:30;;;;;;;6.70;5.10;;;37.20;41.50;;;;;;10512082;28;20047;-28
2023/06/10 19:20:32;;;;;;;7.00;4.85;;;37.30;41.60;;;;;;10525664;28;20085;-27
2023/06/10 19:25:35;;;;;;;5.88;4.40;;;37.40;41.50;;;;;;10526732;28;20089;-26
2023/06/10 19:30:37;;;;;;;7.25;4.00;;;37.30;41.40;;;;;;10516778;28;20044;-27
2023/06/10 19:35:41;;;;;;;5.15;3.63;;;37.20;42.20;;;;;;10523363;28;20113;-29
2023/06/10 19:40:44;;;;;;;4.07;3.55;;;37.10;41.80;;;;;;10529538;28;20562;-27
2023/06/10 19:45:46;;;;;;;3.88;3.13;;;37.00;42.00;;;;;;10531649;28;20083;-26
2023/06/10 19:50:49;;;;;;;3.90;3.17;;;37.00;42.20;;;;;;10524003;28;20060;-27
2023/06/10 19:55:53;;;;;;;3.80;3.13;;;36.80;42.30;;;;;;10530339;28;20092;-25
2023/06/10 20:00:55;;;;;;;4.50;2.95;;;36.70;42.40;;;;;;10522822;28;20562;-27
2023/06/10 20:05:56;;;;;;;3.50;2.75;;;36.60;42.50;;;;;;10537692;28;20127;-28
2023/06/10 20:11:00;;;;;;;4.75;2.47;;;36.50;42.70;;;;;;10542403;28;20075;-26
2023/06/10 20:16:01;;;;;;;3.55;2.80;;;36.30;42.50;;;;;;10537612;28;20447;-29
2023/06/10 20:21:04;;;;;;;5.03;2.70;;;36.20;42.80;;;;;;10543557;28;20131;-29
2023/06/10 20:26:07;;;;;;;4.03;2.42;;;36.20;43.00;;;;;;10535134;28;20072;-27
2023/06/10 20:31:09;;;;;;;7.95;2.78;;;36.10;43.10;;;;;;10535007;28;20110;-28
2023/06/10 20:36:10;;;;;;;5.88;3.20;;;35.90;43.10;;;;;;10531459;28;20061;-27
2023/06/10 20:41:15;;;;;;;11.63;3.40;;;35.80;43.20;;;;;;10553816;28;20138;-28
2023/06/10 20:46:17;;;;;;;9.32;3.60;;;35.70;43.30;;;;;;10555447;28;20135;-28
2023/06/10 20:51:19;;;;;;;13.38;3.92;;;35.60;43.40;;;;;;10531561;28;20044;-33
2023/06/10 20:56:23;;;;;;;12.45;3.33;;;35.50;43.40;;;;;;10534603;28;20074;-26
2023/06/10 21:01:25;;;;;;;9.35;3.15;;;35.50;43.70;;;;;;10533554;28;20126;-27
2023/06/10 21:06:27;;;;;;;13.77;4.00;;;35.40;43.90;;;;;;10535879;28;20051;-25
2023/06/10 21:11:30;;;;;;;8.65;3.20;;;35.30;43.80;;;;;;10519116;28;20052;-28
2023/06/10 21:16:33;;;;;;;10.73;3.00;;;35.20;43.90;;;;;;10545511;28;20079;-26
2023/06/10 21:21:36;;;;;;;9.35;3.38;;;35.10;43.90;;;;;;10550419;28;20055;-26
2023/06/10 21:26:39;;;;;;;8.18;2.72;;;35.00;44.00;;;;;;10535079;28;20039;-26
2023/06/10 21:31:41;;;;;;;10.60;3.90;;;35.00;44.10;;;;;;10529048;28;20397;-29
2023/06/10 21:36:43;;;;;;;6.57;2.83;;;34.90;44.10;;;;;;10533188;28;20076;-29
2023/06/10 21:41:46;;;;;;;9.77;2.47;;;34.80;44.10;;;;;;10552114;28;20472;-32
2023/06/10 21:46:49;;;;;;;6.55;2.70;;;34.70;44.20;;;;;;10517110;28;20093;-31
2023/06/10 21:51:50;;;;;;;11.32;2.83;;;34.60;44.30;;;;;;10530328;28;20131;-28
2023/06/10 21:56:53;;;;;;;6.78;2.63;;;34.60;44.40;;;;;;10539217;28;20048;-29
2023/06/10 22:01:55;;;;;;;8.02;2.20;;;34.50;44.40;;;;;;10537989;28;20051;-29
2023/06/10 22:06:57;;;;;;;5.53;2.35;;;34.40;44.40;;;;;;10529713;28;20138;-28
2023/06/10 22:12:01;;;;;;;4.80;2.28;;;34.30;44.40;;;;;;10521550;28;20056;-27
2023/06/10 22:17:03;;;;;;;5.57;2.42;;;34.30;44.50;;;;;;10528994;28;20075;-28
2023/06/10 22:22:05;;;;;;;4.80;2.20;;;34.20;44.50;;;;;;10535139;28;20571;-28
2023/06/10 22:27:08;;;;;;;3.65;2.22;;;34.20;44.60;;;;;;10536817;28;20425;-30
2023/06/10 22:32:11;;;;;;;3.85;1.92;;;34.10;44.60;;;;;;10542028;28;20127;-29
2023/06/10 22:37:13;;;;;;;5.22;2.00;;;34.00;44.70;;;;;;10544605;28;20083;-28
2023/06/10 22:42:16;;;;;;;4.47;2.17;;;33.90;44.70;;;;;;10531191;28;20053;-27
2023/06/10 22:47:18;;;;;;;2.90;1.90;;;33.90;44.70;;;;;;10529002;28;20119;-29
2023/06/10 22:52:20;;;;;;;3.03;2.08;;;33.80;44.70;;;;;;10527469;28;20134;-27
2023/06/10 22:57:23;;;;;;;2.03;1.73;;;33.70;44.70;;;;;;10524321;28;20465;-31
2023/06/10 23:02:25;;;;;;;2.63;1.73;;;33.60;44.70;;;;;;10518667;28;20663;-29
2023/06/10 23:07:27;;;;;;;4.53;1.70;;;33.60;44.70;;;;;;10533250;28;20059;-30
2023/06/10 23:12:30;;;;;;;2.03;1.80;;;33.60;44.80;;;;;;10520278;28;20456;-32
2023/06/10 23:17:32;;;;;;;3.33;2.15;;;33.50;44.80;;;;;;10524554;28;20135;-30
2023/06/10 23:22:34;;;;;;;3.35;1.73;;;33.40;44.80;;;;;;10515789;28;20105;-29
2023/06/10 23:27:37;;;;;;;2.30;1.60;;;33.40;44.80;;;;;;10515348;28;20044;-28
2023/06/10 23:32:39;;;;;;;2.42;2.08;;;33.30;44.80;;;;;;10531785;28;20130;-30
2023/06/10 23:37:41;;;;;;;3.35;2.10;;;33.30;45.00;;;;;;10540411;28;20059;-28
2023/06/10 23:42:44;;;;;;;4.40;2.30;;;33.20;44.90;;;;;;10546407;28;20072;-27
2023/06/10 23:47:46;;;;;;;2.42;1.88;;;33.10;44.90;;;;;;10538340;28;20044;-26
2023/06/10 23:52:48;;;;;;;3.08;2.15;;;33.10;45.00;;;;;;10542002;28;20457;-29
2023/06/10 23:57:51;;;;;;;2.45;2.03;;;33.00;45.00;;;;;;10541028;28;20051;-26
